createdAt,value
2017-08-02T00:00:10.037Z,0
2017-08-02T00:00:50.561Z,0
2017-08-02T00:01:31.090Z,0
2017-08-02T00:02:11.612Z,0
2017-08-02T00:02:52.170Z,0
2017-08-02T00:03:32.672Z,0
2017-08-02T00:04:13.183Z,0
2017-08-02T00:04:53.709Z,0
2017-08-02T00:05:34.225Z,0
2017-08-02T00:06:14.743Z,0
2017-08-02T00:06:55.257Z,0
2017-08-02T00:07:35.757Z,0
2017-08-02T00:08:16.288Z,0
2017-08-02T00:08:56.817Z,0
2017-08-02T00:09:37.360Z,0
2017-08-02T00:10:17.879Z,0
2017-08-02T00:10:58.389Z,0
2017-08-02T00:11:38.922Z,0
2017-08-02T00:12:19.420Z,0
2017-08-02T00:12:59.949Z,0
2017-08-02T00:13:40.476Z,0
2017-08-02T00:14:21.008Z,0
2017-08-02T00:15:01.507Z,0
2017-08-02T00:15:42.036Z,0
2017-08-02T00:16:22.574Z,0
2017-08-02T00:17:03.090Z,0
2017-08-02T00:17:43.613Z,0
2017-08-02T00:18:24.147Z,0
2017-08-02T00:19:04.644Z,0
2017-08-02T00:19:45.166Z,0
2017-08-02T00:20:25.695Z,0
2017-08-02T00:21:06.210Z,0
2017-08-02T00:21:46.727Z,0
2017-08-02T00:22:27.248Z,0
2017-08-02T00:23:07.765Z,0
2017-08-02T00:23:48.267Z,0
2017-08-02T00:24:28.808Z,0
2017-08-02T00:25:09.305Z,0
2017-08-02T00:25:49.813Z,0
2017-08-02T00:26:30.347Z,0
2017-08-02T00:27:10.862Z,0
2017-08-02T00:27:51.348Z,0
2017-08-02T00:28:31.866Z,0
2017-08-02T00:29:12.385Z,0
2017-08-02T00:29:52.902Z,0
2017-08-02T00:30:33.438Z,0
2017-08-02T00:31:13.945Z,0
2017-08-02T00:31:54.453Z,0
2017-08-02T00:32:34.979Z,0
2017-08-02T00:33:15.486Z,0
2017-08-02T00:33:55.991Z,0
2017-08-02T00:34:36.523Z,0
2017-08-02T00:35:17.048Z,0
2017-08-02T00:35:57.557Z,0
2017-08-02T00:36:38.092Z,0
2017-08-02T00:37:18.610Z,0
2017-08-02T00:37:59.133Z,0
2017-08-02T00:38:39.662Z,0
2017-08-02T00:39:20.183Z,0
2017-08-02T00:40:00.698Z,0
2017-08-02T00:40:41.211Z,0
2017-08-02T00:41:21.748Z,0
2017-08-02T00:42:02.261Z,0
2017-08-02T00:42:42.781Z,0
2017-08-02T00:43:23.303Z,0
2017-08-02T00:44:03.833Z,0
2017-08-02T00:44:44.357Z,0
2017-08-02T00:45:24.877Z,0
2017-08-02T00:46:05.393Z,0
2017-08-02T00:46:45.925Z,0
2017-08-02T00:47:26.436Z,0
2017-08-02T00:48:06.962Z,0
2017-08-02T00:48:47.479Z,0
2017-08-02T00:49:28.001Z,0
2017-08-02T00:50:08.510Z,0
2017-08-02T00:50:49.026Z,0
2017-08-02T00:51:29.545Z,0
2017-08-02T00:52:10.061Z,0
2017-08-02T00:52:50.562Z,0
2017-08-02T00:53:31.114Z,0
2017-08-02T00:54:11.613Z,0
2017-08-02T00:54:52.139Z,0
2017-08-02T00:55:32.653Z,0
2017-08-02T00:56:13.172Z,0
2017-08-02T00:56:53.700Z,0
2017-08-02T00:57:34.248Z,0
2017-08-02T00:58:14.753Z,0
2017-08-02T00:58:55.277Z,0
2017-08-02T00:59:35.820Z,0
2017-08-02T01:00:16.358Z,0
2017-08-02T01:00:56.855Z,0
2017-08-02T01:01:37.383Z,0
2017-08-02T01:02:17.901Z,0
2017-08-02T01:02:58.420Z,0
2017-08-02T01:03:38.931Z,0
2017-08-02T01:04:19.461Z,0
2017-08-02T01:04:59.968Z,0
2017-08-02T01:05:40.487Z,0
2017-08-02T01:06:21.003Z,0
2017-08-02T01:07:01.539Z,0
2017-08-02T01:07:42.051Z,0
2017-08-02T01:08:22.554Z,0
2017-08-02T01:09:03.073Z,0
2017-08-02T01:09:43.569Z,0
2017-08-02T01:10:24.074Z,0
2017-08-02T01:11:04.621Z,0
2017-08-02T01:11:45.152Z,0
2017-08-02T01:12:25.667Z,0
2017-08-02T01:13:06.199Z,0
2017-08-02T01:13:46.736Z,0
2017-08-02T01:14:27.233Z,0
2017-08-02T01:15:07.769Z,0
2017-08-02T01:15:48.278Z,0
2017-08-02T01:16:28.786Z,0
2017-08-02T01:17:09.314Z,0
2017-08-02T01:17:49.818Z,0
2017-08-02T01:18:30.358Z,0
2017-08-02T01:19:10.869Z,0
2017-08-02T01:19:51.418Z,0
2017-08-02T01:20:31.956Z,0
2017-08-02T01:21:12.487Z,0
2017-08-02T01:21:52.995Z,0
2017-08-02T01:22:33.507Z,0
2017-08-02T01:23:14.024Z,0
2017-08-02T01:23:54.548Z,0
2017-08-02T01:24:35.056Z,0
2017-08-02T01:25:15.618Z,0
2017-08-02T01:25:56.149Z,0
2017-08-02T01:26:36.673Z,0
2017-08-02T01:27:17.171Z,0
2017-08-02T01:27:57.694Z,0
2017-08-02T01:28:38.235Z,0
2017-08-02T01:29:18.742Z,0
2017-08-02T01:29:59.286Z,0
2017-08-02T01:30:39.803Z,0
2017-08-02T01:31:20.314Z,0
2017-08-02T01:32:00.840Z,0
2017-08-02T01:32:41.368Z,0
2017-08-02T01:33:21.882Z,0
2017-08-02T01:34:02.412Z,0
2017-08-02T01:34:42.935Z,0
2017-08-02T01:35:23.458Z,0
2017-08-02T01:36:03.999Z,0
2017-08-02T01:36:44.493Z,0
2017-08-02T01:37:25.001Z,0
2017-08-02T01:38:05.527Z,0
2017-08-02T01:38:46.039Z,0
2017-08-02T01:39:26.547Z,0
2017-08-02T01:40:07.083Z,0
2017-08-02T01:40:47.587Z,0
2017-08-02T01:41:28.114Z,0
2017-08-02T01:42:08.627Z,0
2017-08-02T01:42:49.142Z,0
2017-08-02T01:43:29.693Z,0
2017-08-02T01:44:10.159Z,0
2017-08-02T01:44:50.674Z,0
2017-08-02T01:45:31.193Z,0
2017-08-02T01:46:11.715Z,0
2017-08-02T01:46:52.212Z,0
2017-08-02T01:47:32.742Z,0
2017-08-02T01:48:13.242Z,0
2017-08-02T01:48:53.778Z,0
2017-08-02T01:49:34.291Z,0
2017-08-02T01:50:14.809Z,0
2017-08-02T01:50:55.298Z,0
2017-08-02T01:51:35.837Z,0
2017-08-02T01:52:16.353Z,0
2017-08-02T01:52:56.880Z,0
2017-08-02T01:53:37.412Z,0
2017-08-02T01:54:17.943Z,0
2017-08-02T01:54:58.479Z,0
2017-08-02T01:55:38.989Z,0
2017-08-02T01:56:19.521Z,0
2017-08-02T01:57:00.041Z,0
2017-08-02T01:57:40.593Z,0
2017-08-02T01:58:21.079Z,0
2017-08-02T01:59:01.601Z,0
2017-08-02T01:59:42.104Z,0
2017-08-02T02:00:22.631Z,0
2017-08-02T02:01:03.151Z,0
2017-08-02T02:01:43.685Z,0
2017-08-02T02:02:24.185Z,0
2017-08-02T02:03:04.684Z,0
2017-08-02T02:03:45.234Z,0
2017-08-02T02:04:25.763Z,0
2017-08-02T02:05:06.272Z,0
2017-08-02T02:05:46.787Z,0
2017-08-02T02:06:27.285Z,0
2017-08-02T02:07:07.817Z,0
2017-08-02T02:07:48.332Z,0
2017-08-02T02:08:28.841Z,0
2017-08-02T02:09:09.349Z,0
2017-08-02T02:09:49.880Z,0
2017-08-02T02:10:30.377Z,0
2017-08-02T02:11:10.905Z,0
2017-08-02T02:11:51.414Z,0
2017-08-02T02:12:31.931Z,0
2017-08-02T02:13:12.474Z,0
2017-08-02T02:13:53.003Z,0
2017-08-02T02:14:33.522Z,0
2017-08-02T02:15:14.042Z,0
2017-08-02T02:15:54.573Z,0
2017-08-02T02:16:35.094Z,0
2017-08-02T02:17:15.627Z,0
2017-08-02T02:17:56.113Z,0
2017-08-02T02:18:36.625Z,0
2017-08-02T02:19:17.134Z,0
2017-08-02T02:19:57.645Z,0
2017-08-02T02:20:38.166Z,0
2017-08-02T02:21:18.689Z,0
2017-08-02T02:21:59.228Z,0
2017-08-02T02:22:39.760Z,0
2017-08-02T02:23:20.280Z,0
2017-08-02T02:24:00.777Z,0
2017-08-02T02:24:41.336Z,0
2017-08-02T02:25:21.859Z,0
2017-08-02T02:26:02.362Z,0
2017-08-02T02:26:42.893Z,0
2017-08-02T02:27:23.454Z,0
2017-08-02T02:28:03.971Z,0
2017-08-02T02:28:44.499Z,0
2017-08-02T02:29:25.012Z,0
2017-08-02T02:30:05.534Z,0
2017-08-02T02:30:46.078Z,0
2017-08-02T02:31:26.602Z,0
2017-08-02T02:32:07.123Z,0
2017-08-02T02:32:47.648Z,0
2017-08-02T02:33:28.174Z,0
2017-08-02T02:34:08.672Z,0
2017-08-02T02:34:49.183Z,0
2017-08-02T02:35:29.709Z,0
2017-08-02T02:36:10.229Z,0
2017-08-02T02:36:50.746Z,0
2017-08-02T02:37:31.286Z,0
2017-08-02T02:38:11.816Z,0
2017-08-02T02:38:52.321Z,0
2017-08-02T02:39:32.828Z,0
2017-08-02T02:40:13.345Z,0
2017-08-02T02:40:53.864Z,0
2017-08-02T02:41:34.379Z,0
2017-08-02T02:42:14.881Z,0
2017-08-02T02:42:55.414Z,0
2017-08-02T02:43:35.907Z,0
2017-08-02T02:44:16.431Z,0
2017-08-02T02:44:56.914Z,0
2017-08-02T02:45:37.461Z,0
2017-08-02T02:46:18.015Z,0
2017-08-02T02:46:58.504Z,0
2017-08-02T02:47:39.012Z,0
2017-08-02T02:48:19.533Z,0
2017-08-02T02:49:00.053Z,0
2017-08-02T02:49:40.586Z,0
2017-08-02T02:50:21.103Z,0
2017-08-02T02:51:01.626Z,0
2017-08-02T02:51:42.131Z,0
2017-08-02T02:52:22.652Z,0
2017-08-02T02:53:03.164Z,0
2017-08-02T02:53:43.684Z,0
2017-08-02T02:54:24.216Z,0
2017-08-02T02:55:04.792Z,0
2017-08-02T02:55:47.748Z,0
2017-08-02T02:56:28.264Z,0
2017-08-02T02:57:08.797Z,0
2017-08-02T02:57:49.339Z,0
2017-08-02T02:58:29.861Z,0
2017-08-02T02:59:10.343Z,0
2017-08-02T02:59:50.860Z,0
2017-08-02T03:00:31.376Z,0
2017-08-02T03:01:11.871Z,0
2017-08-02T03:01:52.391Z,0
2017-08-02T03:02:32.920Z,0
2017-08-02T03:03:13.459Z,0
2017-08-02T03:03:53.984Z,0
2017-08-02T03:04:34.505Z,0
2017-08-02T03:05:15.019Z,0
2017-08-02T03:05:55.531Z,0
2017-08-02T03:06:36.038Z,0
2017-08-02T03:07:16.559Z,0
2017-08-02T03:07:57.083Z,0
2017-08-02T03:08:37.586Z,0
2017-08-02T03:09:18.091Z,0
2017-08-02T03:09:58.626Z,0
2017-08-02T03:10:39.142Z,0
2017-08-02T03:11:19.640Z,0
2017-08-02T03:12:00.166Z,0
2017-08-02T03:12:40.699Z,0
2017-08-02T03:13:21.210Z,0
2017-08-02T03:14:01.737Z,0
2017-08-02T03:14:42.757Z,0
2017-08-02T03:15:23.278Z,0
2017-08-02T03:16:03.760Z,0
2017-08-02T03:16:44.273Z,0
2017-08-02T03:17:24.797Z,0
2017-08-02T03:18:05.317Z,0
2017-08-02T03:18:45.865Z,0
2017-08-02T03:19:26.362Z,0
2017-08-02T03:20:06.893Z,0
2017-08-02T03:20:47.378Z,0
2017-08-02T03:21:27.916Z,0
2017-08-02T03:22:08.435Z,0
2017-08-02T03:22:48.961Z,0
2017-08-02T03:23:29.460Z,0
2017-08-02T03:24:09.961Z,0
2017-08-02T03:24:50.485Z,0
2017-08-02T03:25:30.976Z,0
2017-08-02T03:26:11.478Z,0
2017-08-02T03:26:52.010Z,0
2017-08-02T03:27:32.558Z,0
2017-08-02T03:28:13.060Z,0
2017-08-02T03:28:53.561Z,0
2017-08-02T03:29:34.090Z,0
2017-08-02T03:30:14.611Z,0
2017-08-02T03:30:55.149Z,0
2017-08-02T03:31:35.684Z,0
2017-08-02T03:32:16.203Z,0
2017-08-02T03:32:56.709Z,4
2017-08-02T03:33:37.246Z,4
2017-08-02T03:34:17.780Z,4
2017-08-02T03:34:58.283Z,4
2017-08-02T03:35:38.832Z,0
2017-08-02T03:36:19.310Z,4
2017-08-02T03:36:59.825Z,4
2017-08-02T03:37:40.351Z,4
2017-08-02T03:38:20.863Z,4
2017-08-02T03:39:01.410Z,4
2017-08-02T03:39:41.926Z,4
2017-08-02T03:40:22.430Z,8
2017-08-02T03:41:02.919Z,4
2017-08-02T03:41:43.451Z,8
2017-08-02T03:42:23.966Z,8
2017-08-02T03:43:04.455Z,8
2017-08-02T03:43:44.969Z,8
2017-08-02T03:44:25.512Z,12
2017-08-02T03:45:06.025Z,12
2017-08-02T03:45:46.533Z,12
2017-08-02T03:46:27.067Z,16
2017-08-02T03:47:07.585Z,16
2017-08-02T03:47:48.088Z,20
2017-08-02T03:48:28.622Z,20
2017-08-02T03:49:09.144Z,20
2017-08-02T03:49:49.688Z,24
2017-08-02T03:50:30.244Z,20
2017-08-02T03:51:10.751Z,24
2017-08-02T03:51:51.284Z,24
2017-08-02T03:52:31.795Z,28
2017-08-02T03:53:12.300Z,28
2017-08-02T03:53:52.821Z,32
2017-08-02T03:54:33.385Z,28
2017-08-02T03:55:13.877Z,32
2017-08-02T03:55:54.386Z,32
2017-08-02T03:56:34.918Z,36
2017-08-02T03:57:15.400Z,36
2017-08-02T03:57:55.927Z,36
2017-08-02T03:58:36.434Z,40
2017-08-02T03:59:16.939Z,44
2017-08-02T03:59:57.471Z,44
2017-08-02T04:00:37.979Z,44
2017-08-02T04:01:18.494Z,52
2017-08-02T04:01:59.015Z,52
2017-08-02T04:02:39.546Z,56
2017-08-02T04:03:20.073Z,56
2017-08-02T04:04:00.602Z,60
2017-08-02T04:04:41.115Z,60
2017-08-02T04:05:21.619Z,64
2017-08-02T04:06:02.145Z,68
2017-08-02T04:06:42.670Z,72
2017-08-02T04:07:23.197Z,76
2017-08-02T04:08:03.676Z,76
2017-08-02T04:08:44.843Z,80
2017-08-02T04:09:25.368Z,88
2017-08-02T04:10:05.892Z,92
2017-08-02T04:10:46.390Z,100
2017-08-02T04:11:26.896Z,108
2017-08-02T04:12:07.429Z,116
2017-08-02T04:12:47.951Z,124
2017-08-02T04:13:28.494Z,132
2017-08-02T04:14:08.997Z,140
2017-08-02T04:14:49.547Z,140
2017-08-02T04:15:30.096Z,152
2017-08-02T04:16:10.643Z,152
2017-08-02T04:16:51.200Z,164
2017-08-02T04:17:31.685Z,168
2017-08-02T04:18:12.231Z,176
2017-08-02T04:18:52.714Z,188
2017-08-02T04:19:33.277Z,196
2017-08-02T04:20:13.769Z,200
2017-08-02T04:20:54.272Z,216
2017-08-02T04:21:34.792Z,228
2017-08-02T04:22:15.341Z,224
2017-08-02T04:22:55.833Z,236
2017-08-02T04:23:36.351Z,232
2017-08-02T04:24:16.857Z,252
2017-08-02T04:24:57.363Z,272
2017-08-02T04:25:37.894Z,280
2017-08-02T04:26:18.759Z,296
2017-08-02T04:26:59.907Z,308
2017-08-02T04:27:40.426Z,328
2017-08-02T04:28:20.916Z,328
2017-08-02T04:29:01.431Z,344
2017-08-02T04:29:41.963Z,352
2017-08-02T04:30:22.479Z,360
2017-08-02T04:31:03.032Z,364
2017-08-02T04:31:43.482Z,364
2017-08-02T04:32:23.986Z,364
2017-08-02T04:33:04.524Z,360
2017-08-02T04:33:45.000Z,368
2017-08-02T04:34:25.516Z,356
2017-08-02T04:35:06.019Z,360
2017-08-02T04:35:46.565Z,356
2017-08-02T04:36:27.074Z,360
2017-08-02T04:37:07.581Z,368
2017-08-02T04:37:48.078Z,376
2017-08-02T04:38:28.551Z,388
2017-08-02T04:39:09.053Z,408
2017-08-02T04:39:49.541Z,432
2017-08-02T04:40:30.080Z,436
2017-08-02T04:41:10.593Z,432
2017-08-02T04:41:51.084Z,432
2017-08-02T04:42:31.637Z,428
2017-08-02T04:43:12.113Z,428
2017-08-02T04:43:52.580Z,420
2017-08-02T04:44:33.091Z,456
2017-08-02T04:45:13.573Z,456
2017-08-02T04:45:54.067Z,448
2017-08-02T04:46:34.681Z,428
2017-08-02T04:47:15.111Z,424
2017-08-02T04:47:55.626Z,412
2017-08-02T04:48:36.130Z,400
2017-08-02T04:49:16.677Z,384
2017-08-02T04:49:57.169Z,428
2017-08-02T04:50:37.671Z,404
2017-08-02T04:51:18.195Z,412
2017-08-02T04:51:58.694Z,412
2017-08-02T04:52:39.195Z,456
2017-08-02T04:53:19.773Z,452
2017-08-02T04:54:00.233Z,488
2017-08-02T04:54:40.816Z,496
2017-08-02T04:55:21.416Z,496
2017-08-02T04:56:01.961Z,548
2017-08-02T04:56:42.418Z,552
2017-08-02T04:57:22.949Z,508
2017-08-02T04:58:03.474Z,520
2017-08-02T04:58:43.944Z,508
2017-08-02T04:59:24.443Z,524
2017-08-02T05:00:04.941Z,556
2017-08-02T05:00:45.437Z,556
2017-08-02T05:01:26.042Z,612
2017-08-02T05:02:06.499Z,600
2017-08-02T05:02:47.010Z,664
2017-08-02T05:03:27.501Z,732
2017-08-02T05:04:08.053Z,796
2017-08-02T05:04:48.548Z,900
2017-08-02T05:05:29.148Z,932
2017-08-02T05:06:09.634Z,888
2017-08-02T05:06:50.129Z,864
2017-08-02T05:07:30.672Z,848
2017-08-02T05:08:11.187Z,840
2017-08-02T05:08:51.717Z,844
2017-08-02T05:09:32.236Z,836
2017-08-02T05:10:12.742Z,828
2017-08-02T05:10:53.244Z,832
2017-08-02T05:11:33.797Z,836
2017-08-02T05:12:14.381Z,856
2017-08-02T05:12:55.005Z,924
2017-08-02T05:13:35.487Z,904
2017-08-02T05:14:16.106Z,952
2017-08-02T05:14:56.662Z,964
2017-08-02T05:15:37.240Z,1032
2017-08-02T05:16:17.671Z,1012
2017-08-02T05:16:58.254Z,1088
2017-08-02T05:17:38.725Z,1140
2017-08-02T05:18:19.298Z,1224
2017-08-02T05:18:59.804Z,1408
2017-08-02T05:19:40.603Z,1560
2017-08-02T05:20:21.085Z,1532
2017-08-02T05:21:01.559Z,1408
2017-08-02T05:21:42.082Z,1268
2017-08-02T05:22:22.664Z,1168
2017-08-02T05:23:03.157Z,1252
2017-08-02T05:23:43.682Z,1312
2017-08-02T05:24:24.260Z,1432
2017-08-02T05:25:04.825Z,1492
2017-08-02T05:25:45.416Z,1560
2017-08-02T05:26:25.868Z,1420
2017-08-02T05:27:06.384Z,1376
2017-08-02T05:27:46.898Z,1368
2017-08-02T05:28:27.492Z,1456
2017-08-02T05:29:07.915Z,1452
2017-08-02T05:29:48.451Z,1452
2017-08-02T05:30:28.966Z,1524
2017-08-02T05:31:09.511Z,1536
2017-08-02T05:31:50.121Z,1584
2017-08-02T05:32:30.629Z,1616
2017-08-02T05:33:11.141Z,1636
2017-08-02T05:33:51.725Z,1628
2017-08-02T05:34:32.333Z,1636
2017-08-02T05:35:12.966Z,1460
2017-08-02T05:35:53.488Z,1404
2017-08-02T05:36:34.047Z,1324
2017-08-02T05:37:14.560Z,1296
2017-08-02T05:37:55.096Z,1252
2017-08-02T05:38:35.661Z,1236
2017-08-02T05:39:16.240Z,1232
2017-08-02T05:39:56.822Z,1252
2017-08-02T05:40:37.447Z,1288
2017-08-02T05:41:18.049Z,1396
2017-08-02T05:41:58.547Z,1652
2017-08-02T05:42:39.400Z,2140
2017-08-02T05:43:19.684Z,2348
2017-08-02T05:44:00.228Z,2368
2017-08-02T05:44:40.773Z,2208
2017-08-02T05:45:21.451Z,1796
2017-08-02T05:46:01.894Z,1520
2017-08-02T05:46:42.393Z,1436
2017-08-02T05:47:24.279Z,1396
2017-08-02T05:48:05.294Z,1400
2017-08-02T05:48:45.761Z,1448
2017-08-02T05:49:26.386Z,1536
2017-08-02T05:50:06.937Z,1568
2017-08-02T05:50:47.537Z,1576
2017-08-02T05:51:28.297Z,1644
2017-08-02T05:52:08.830Z,1864
2017-08-02T05:52:49.507Z,2052
2017-08-02T05:53:30.164Z,2272
2017-08-02T05:54:10.734Z,2396
2017-08-02T05:54:51.266Z,2548
2017-08-02T05:55:32.176Z,2704
2017-08-02T05:56:13.026Z,2728
2017-08-02T05:56:53.631Z,2700
2017-08-02T05:57:34.265Z,2660
2017-08-02T05:58:15.729Z,2712
2017-08-02T05:58:55.938Z,2752
2017-08-02T05:59:36.489Z,2744
2017-08-02T06:00:17.426Z,2740
2017-08-02T06:00:58.141Z,2864
2017-08-02T06:01:40.340Z,3036
2017-08-02T06:02:23.537Z,3296
2017-08-02T06:03:04.909Z,3436
2017-08-02T06:03:45.889Z,3500
2017-08-02T06:04:26.458Z,3476
2017-08-02T06:05:10.529Z,3516
2017-08-02T06:05:51.059Z,3656
2017-08-02T06:06:31.612Z,3680
2017-08-02T06:07:13.188Z,3604
2017-08-02T06:07:53.747Z,3652
2017-08-02T06:08:34.301Z,3660
2017-08-02T06:09:15.074Z,3536
2017-08-02T06:09:55.637Z,3520
2017-08-02T06:10:36.400Z,3548
2017-08-02T06:11:16.896Z,3608
2017-08-02T06:11:57.364Z,3652
2017-08-02T06:12:37.926Z,3664
2017-08-02T06:13:19.648Z,3712
2017-08-02T06:14:01.577Z,3604
2017-08-02T06:14:44.682Z,3372
2017-08-02T06:15:25.253Z,3312
2017-08-02T06:16:05.745Z,3356
2017-08-02T06:17:01.419Z,3412
2017-08-02T06:17:42.198Z,3384
2017-08-02T06:18:22.929Z,3396
2017-08-02T06:19:04.577Z,3232
2017-08-02T06:19:44.993Z,3460
2017-08-02T06:20:25.501Z,3684
2017-08-02T06:21:06.795Z,3980
2017-08-02T06:21:47.299Z,4044
2017-08-02T06:22:28.565Z,4148
2017-08-02T06:23:09.111Z,4320
2017-08-02T06:23:50.077Z,4120
2017-08-02T06:24:30.670Z,3924
2017-08-02T06:25:11.379Z,3716
2017-08-02T06:25:52.389Z,3704
2017-08-02T06:26:33.080Z,3768
2017-08-02T06:27:14.063Z,3704
2017-08-02T06:27:55.938Z,3776
2017-08-02T06:28:39.500Z,4000
2017-08-02T06:29:20.131Z,4136
2017-08-02T06:30:01.102Z,4368
2017-08-02T06:30:42.410Z,4452
2017-08-02T06:31:23.146Z,4640
2017-08-02T06:32:04.076Z,4804
2017-08-02T06:32:44.588Z,4756
2017-08-02T06:33:27.660Z,4556
2017-08-02T06:34:08.310Z,4376
2017-08-02T06:34:49.405Z,4104
2017-08-02T06:35:29.950Z,4024
2017-08-02T06:36:13.942Z,3948
2017-08-02T06:36:54.464Z,3972
2017-08-02T06:37:35.108Z,3932
2017-08-02T06:38:19.824Z,3744
2017-08-02T06:39:02.324Z,3488
2017-08-02T06:39:47.430Z,3220
2017-08-02T06:40:27.920Z,3068
2017-08-02T06:41:08.801Z,2888
2017-08-02T06:41:49.343Z,2728
2017-08-02T06:42:30.786Z,2648
2017-08-02T06:43:11.419Z,2604
2017-08-02T06:43:52.690Z,2524
2017-08-02T06:44:34.072Z,2384
2017-08-02T06:45:14.624Z,2440
2017-08-02T06:45:55.157Z,2652
2017-08-02T06:46:35.860Z,2640
2017-08-02T06:47:16.456Z,2608
2017-08-02T06:47:57.023Z,2656
2017-08-02T06:48:37.565Z,2968
2017-08-02T06:49:18.578Z,3664
2017-08-02T06:49:58.862Z,3760
2017-08-02T06:50:39.471Z,3728
2017-08-02T06:51:20.872Z,3672
2017-08-02T06:52:01.912Z,3676
2017-08-02T06:52:42.156Z,3704
2017-08-02T06:53:23.641Z,3628
2017-08-02T06:54:04.315Z,3832
2017-08-02T06:54:44.797Z,3796
2017-08-02T06:55:25.344Z,3744
2017-08-02T06:56:05.832Z,3652
2017-08-02T06:56:46.411Z,3704
2017-08-02T06:57:26.912Z,3800
2017-08-02T06:58:07.473Z,3876
2017-08-02T06:58:47.993Z,3960
2017-08-02T06:59:28.533Z,3848
2017-08-02T07:00:09.244Z,3804
2017-08-02T07:00:49.809Z,3688
2017-08-02T07:01:30.239Z,3696
2017-08-02T07:02:10.772Z,4008
2017-08-02T07:02:51.652Z,4036
2017-08-02T07:03:32.372Z,4212
2017-08-02T07:04:12.908Z,4176
2017-08-02T07:04:54.326Z,3800
2017-08-02T07:05:34.880Z,4036
2017-08-02T07:06:15.452Z,4276
2017-08-02T07:06:55.995Z,3932
2017-08-02T07:07:36.490Z,3292
2017-08-02T07:08:17.055Z,2856
2017-08-02T07:08:57.677Z,2788
2017-08-02T07:09:38.116Z,3252
2017-08-02T07:10:18.726Z,3468
2017-08-02T07:10:59.220Z,3496
2017-08-02T07:11:39.770Z,3620
2017-08-02T07:12:20.276Z,3660
2017-08-02T07:13:00.960Z,3828
2017-08-02T07:13:41.644Z,3912
2017-08-02T07:14:22.156Z,3908
2017-08-02T07:15:02.791Z,3624
2017-08-02T07:15:43.387Z,3728
2017-08-02T07:16:23.963Z,3656
2017-08-02T07:17:04.485Z,3700
2017-08-02T07:17:45.089Z,3776
2017-08-02T07:18:26.516Z,3992
2017-08-02T07:19:07.126Z,4260
2017-08-02T07:19:48.042Z,4636
2017-08-02T07:20:28.496Z,5096
2017-08-02T07:21:09.101Z,5564
2017-08-02T07:21:49.741Z,6064
2017-08-02T07:22:30.308Z,5836
2017-08-02T07:23:10.980Z,6876
2017-08-02T07:23:51.464Z,7000
2017-08-02T07:24:32.015Z,7392
2017-08-02T07:25:12.599Z,6760
2017-08-02T07:25:53.124Z,6420
2017-08-02T07:26:33.921Z,6436
2017-08-02T07:27:14.413Z,6792
2017-08-02T07:27:55.032Z,6192
2017-08-02T07:28:35.603Z,6740
2017-08-02T07:29:16.315Z,5044
2017-08-02T07:29:57.116Z,6688
2017-08-02T07:30:37.373Z,4708
2017-08-02T07:31:17.993Z,6424
2017-08-02T07:31:58.743Z,5224
2017-08-02T07:32:39.267Z,6344
2017-08-02T07:33:19.834Z,5856
2017-08-02T07:34:00.455Z,6312
2017-08-02T07:34:41.092Z,7404
2017-08-02T07:35:22.153Z,6948
2017-08-02T07:36:03.198Z,18944
2017-08-02T07:36:44.282Z,29024
2017-08-02T07:37:24.810Z,36992
2017-08-02T07:38:05.501Z,39904
2017-08-02T07:38:47.082Z,35904
2017-08-02T07:39:28.832Z,38080
2017-08-02T07:40:12.845Z,36096
2017-08-02T07:40:54.548Z,20352
2017-08-02T07:41:35.167Z,21664
2017-08-02T07:42:15.858Z,35584
2017-08-02T07:42:56.421Z,32448
2017-08-02T07:43:37.083Z,40576
2017-08-02T07:44:17.542Z,43232
2017-08-02T07:44:58.084Z,41216
2017-08-02T07:45:39.826Z,43808
2017-08-02T07:46:20.204Z,35488
2017-08-02T07:47:00.753Z,29184
2017-08-02T07:47:41.302Z,26432
2017-08-02T07:48:21.895Z,17856
2017-08-02T07:49:02.403Z,32992
2017-08-02T07:49:42.864Z,17152
2017-08-02T07:50:23.370Z,13680
2017-08-02T07:51:03.918Z,23264
2017-08-02T07:51:44.476Z,31296
2017-08-02T07:52:25.029Z,25536
2017-08-02T07:53:05.564Z,23712
2017-08-02T07:53:46.088Z,18880
2017-08-02T07:54:26.706Z,24928
2017-08-02T07:55:07.239Z,18112
2017-08-02T07:55:47.807Z,12356
2017-08-02T07:56:28.739Z,13796
2017-08-02T07:57:09.298Z,12260
2017-08-02T07:57:50.048Z,8780
2017-08-02T07:58:30.502Z,8704
2017-08-02T07:59:13.164Z,10124
2017-08-02T07:59:53.750Z,10328
2017-08-02T08:00:34.405Z,10764
2017-08-02T08:01:15.045Z,11196
2017-08-02T08:01:55.583Z,10364
2017-08-02T08:02:36.075Z,10488
2017-08-02T08:03:17.825Z,10704
2017-08-02T08:03:58.431Z,10864
2017-08-02T08:04:39.026Z,11280
2017-08-02T08:05:19.652Z,11472
2017-08-02T08:06:01.675Z,11568
2017-08-02T08:06:43.252Z,11668
2017-08-02T08:07:23.808Z,11748
2017-08-02T08:08:04.606Z,11452
2017-08-02T08:08:44.929Z,11416
2017-08-02T08:09:25.516Z,11736
2017-08-02T08:10:06.120Z,11808
2017-08-02T08:10:46.859Z,13148
2017-08-02T08:11:28.074Z,14288
2017-08-02T08:12:08.605Z,15028
2017-08-02T08:12:49.205Z,15912
2017-08-02T08:13:29.834Z,16896
2017-08-02T08:14:10.591Z,22336
2017-08-02T08:14:51.245Z,16168
2017-08-02T08:15:31.724Z,14580
2017-08-02T08:16:12.132Z,16928
2017-08-02T08:16:53.468Z,15020
2017-08-02T08:17:33.997Z,25024
2017-08-02T08:18:14.732Z,31104
2017-08-02T08:18:55.267Z,39200
2017-08-02T08:19:35.866Z,28256
2017-08-02T08:20:16.540Z,33440
2017-08-02T08:20:56.988Z,39104
2017-08-02T08:21:37.521Z,47872
2017-08-02T08:22:18.269Z,53056
2017-08-02T08:22:58.843Z,51456
2017-08-02T08:23:39.340Z,48416
2017-08-02T08:24:19.851Z,53856
2017-08-02T08:25:00.373Z,35264
2017-08-02T08:25:40.909Z,24768
2017-08-02T08:26:21.511Z,25056
2017-08-02T08:27:02.030Z,42976
2017-08-02T08:27:42.504Z,50272
2017-08-02T08:28:23.630Z,31744
2017-08-02T08:29:04.193Z,9936
2017-08-02T08:29:44.730Z,10488
2017-08-02T08:30:25.231Z,15252
2017-08-02T08:31:05.753Z,13856
2017-08-02T08:31:46.306Z,17888
2017-08-02T08:32:26.811Z,26432
2017-08-02T08:33:07.339Z,31456
2017-08-02T08:33:47.853Z,31072
2017-08-02T08:34:28.388Z,37664
2017-08-02T08:35:08.934Z,38304
2017-08-02T08:35:49.450Z,40864
2017-08-02T08:36:29.948Z,51040
2017-08-02T08:37:10.451Z,68832
2017-08-02T08:37:50.991Z,63520
2017-08-02T08:38:31.514Z,43328
2017-08-02T08:39:14.599Z,58656
2017-08-02T08:39:55.154Z,64448
2017-08-02T08:42:29.937Z,25056
2017-08-02T08:43:10.578Z,24608
2017-08-02T08:43:51.098Z,22848
2017-08-02T08:44:31.660Z,27040
2017-08-02T08:45:12.322Z,23968
2017-08-02T08:45:52.742Z,21856
2017-08-02T08:46:33.290Z,23776
2017-08-02T08:47:13.836Z,26336
2017-08-02T08:47:54.362Z,22144
2017-08-02T08:48:34.877Z,27904
2017-08-02T08:49:15.389Z,25792
2017-08-02T08:49:55.912Z,32960
2017-08-02T08:50:36.506Z,51360
2017-08-02T08:51:17.077Z,43712
2017-08-02T08:51:57.634Z,37184
2017-08-02T08:52:38.106Z,28384
2017-08-02T08:53:18.653Z,50272
2017-08-02T08:53:59.178Z,47488
2017-08-02T08:54:39.718Z,36544
2017-08-02T08:55:20.225Z,45664
2017-08-02T08:56:00.764Z,22784
2017-08-02T08:56:41.290Z,24128
2017-08-02T08:57:21.798Z,25504
2017-08-02T08:58:02.328Z,16088
2017-08-02T08:58:42.857Z,20320
2017-08-02T08:59:23.380Z,14600
2017-08-02T09:00:03.910Z,13112
2017-08-02T09:00:44.419Z,11796
2017-08-02T09:01:24.935Z,13296
2017-08-02T09:02:05.449Z,15344
2017-08-02T09:02:45.954Z,17152
2017-08-02T09:03:26.469Z,13300
2017-08-02T09:04:07.021Z,12024
2017-08-02T09:04:47.548Z,10860
2017-08-02T09:05:28.072Z,9992
2017-08-02T09:06:08.619Z,9704
2017-08-02T09:06:49.180Z,9556
2017-08-02T09:07:29.663Z,9148
2017-08-02T09:08:10.212Z,10292
2017-08-02T09:08:54.495Z,11644
2017-08-02T09:09:35.036Z,13932
2017-08-02T09:10:15.562Z,15976
2017-08-02T09:10:56.103Z,16188
2017-08-02T09:11:36.643Z,17984
2017-08-02T09:12:17.202Z,17216
2017-08-02T09:12:57.764Z,17600
2017-08-02T09:13:38.244Z,24288
2017-08-02T09:14:18.740Z,24512
2017-08-02T09:14:59.246Z,25632
2017-08-02T09:15:39.763Z,30016
2017-08-02T09:16:20.334Z,36288
2017-08-02T09:17:00.904Z,35328
2017-08-02T09:17:41.368Z,31584
2017-08-02T09:18:21.914Z,23264
2017-08-02T09:19:02.450Z,21024
2017-08-02T09:19:42.943Z,18720
2017-08-02T09:20:23.467Z,15752
2017-08-02T09:21:04.054Z,14188
2017-08-02T09:21:44.591Z,14284
2017-08-02T09:22:25.073Z,15684
2017-08-02T09:23:06.527Z,15984
2017-08-02T09:23:47.041Z,16832
2017-08-02T09:24:27.717Z,19360
2017-08-02T09:25:08.262Z,19744
2017-08-02T09:25:48.758Z,20000